<?xml version="1.0" encoding="UTF-8" standalone="no" ?>
<gpx xmlns="http://www.topografix.com/GPX/1/1" xmlns:xsi="http://www.w3.org/2001/XMLSchema-instance" xsi:schemaLocation="http://www.topografix.com/GPX/1/1 http://www.topografix.com/GPX/1/1/gpx.xsd" version="1.1" creator="VisuGPX - https://www.visugpx.com">
  <metadata>
    <name>Circuit Footing depuis le DIAP</name>
    <desc><![CDATA[Circuit 40% chemins, 60% route départ depuis le DIAP]]></desc>
  </metadata>
  <trk>
    <name><![CDATA[11-JAN-12: 11 JAN 2012 12:11]]></name>
    <trkseg>
      <trkpt lat="49.01336" lon="1.19199">
        <ele>2.54</ele>
        <time>2012-01-11T11:11:05Z</time>
      </trkpt>
      <trkpt lat="49.01334" lon="1.19204">
        <ele>6.87</ele>
        <time>2012-01-11T11:11:06Z</time>
      </trkpt>
      <trkpt lat="49.01332" lon="1.19206">
        <ele>10.71</ele>
        <time>2012-01-11T11:11:07Z</time>
      </trkpt>
      <trkpt lat="49.01329" lon="1.19208">
        <ele>14.56</ele>
        <time>2012-01-11T11:11:08Z</time>
      </trkpt>
      <trkpt lat="49.01327" lon="1.19212">
        <ele>18.4</ele>
        <time>2012-01-11T11:11:09Z</time>
      </trkpt>
      <trkpt lat="49.01325" lon="1.19215">
        <ele>21.77</ele>
        <time>2012-01-11T11:11:10Z</time>
      </trkpt>
      <trkpt lat="49.01321" lon="1.19217">
        <ele>25.13</ele>
        <time>2012-01-11T11:11:11Z</time>
      </trkpt>
      <trkpt lat="49.01319" lon="1.19221">
        <ele>28.5</ele>
        <time>2012-01-11T11:11:12Z</time>
      </trkpt>
      <trkpt lat="49.01316" lon="1.19223">
        <ele>31.86</ele>
        <time>2012-01-11T11:11:13Z</time>
      </trkpt>
      <trkpt lat="49.01312" lon="1.1923">
        <ele>37.63</ele>
        <time>2012-01-11T11:11:15Z</time>
      </trkpt>
      <trkpt lat="49.01308" lon="1.19234">
        <ele>42.92</ele>
        <time>2012-01-11T11:11:17Z</time>
      </trkpt>
      <trkpt lat="49.01304" lon="1.1924">
        <ele>48.2</ele>
        <time>2012-01-11T11:11:19Z</time>
      </trkpt>
      <trkpt lat="49.01299" lon="1.19247">
        <ele>53.01</ele>
        <time>2012-01-11T11:11:21Z</time>
      </trkpt>
      <trkpt lat="49.01295" lon="1.19253">
        <ele>57.34</ele>
        <time>2012-01-11T11:11:23Z</time>
      </trkpt>
      <trkpt lat="49.01291" lon="1.1926">
        <ele>61.66</ele>
        <time>2012-01-11T11:11:25Z</time>
      </trkpt>
      <trkpt lat="49.01286" lon="1.19266">
        <ele>65.51</ele>
        <time>2012-01-11T11:11:27Z</time>
      </trkpt>
      <trkpt lat="49.0128" lon="1.19273">
        <ele>68.87</ele>
        <time>2012-01-11T11:11:29Z</time>
      </trkpt>
      <trkpt lat="49.01276" lon="1.19279">
        <ele>72.24</ele>
        <time>2012-01-11T11:11:31Z</time>
      </trkpt>
      <trkpt lat="49.01269" lon="1.19287">
        <ele>76.56</ele>
        <time>2012-01-11T11:11:34Z</time>
      </trkpt>
      <trkpt lat="49.01265" lon="1.19292">
        <ele>80.89</ele>
        <time>2012-01-11T11:11:37Z</time>
      </trkpt>
      <trkpt lat="49.01256" lon="1.19298">
        <ele>84.73</ele>
        <time>2012-01-11T11:11:40Z</time>
      </trkpt>
      <trkpt lat="49.0125" lon="1.19305">
        <ele>88.1</ele>
        <time>2012-01-11T11:11:43Z</time>
      </trkpt>
      <trkpt lat="49.01246" lon="1.19307">
        <ele>89.06</ele>
        <time>2012-01-11T11:11:44Z</time>
      </trkpt>
      <trkpt lat="49.01233" lon="1.19313">
        <ele>93.39</ele>
        <time>2012-01-11T11:11:49Z</time>
      </trkpt>
      <trkpt lat="49.01218" lon="1.19322">
        <ele>97.23</ele>
        <time>2012-01-11T11:11:54Z</time>
      </trkpt>
      <trkpt lat="49.01203" lon="1.1932">
        <ele>100.6</ele>
        <time>2012-01-11T11:11:59Z</time>
      </trkpt>
      <trkpt lat="49.0119" lon="1.19311">
        <ele>103.96</ele>
        <time>2012-01-11T11:12:04Z</time>
      </trkpt>
      <trkpt lat="49.01173" lon="1.19307">
        <ele>107.32</ele>
        <time>2012-01-11T11:12:10Z</time>
      </trkpt>
      <trkpt lat="49.01171" lon="1.19307">
        <ele>107.81</ele>
        <time>2012-01-11T11:12:11Z</time>
      </trkpt>
      <trkpt lat="49.0116" lon="1.19305">
        <ele>109.73</ele>
        <time>2012-01-11T11:12:15Z</time>
      </trkpt>
      <trkpt lat="49.01134" lon="1.193">
        <ele>113.09</ele>
        <time>2012-01-11T11:12:24Z</time>
      </trkpt>
      <trkpt lat="49.01111" lon="1.19303">
        <ele>116.46</ele>
        <time>2012-01-11T11:12:32Z</time>
      </trkpt>
      <trkpt lat="49.01068" lon="1.19309">
        <ele>119.82</ele>
        <time>2012-01-11T11:12:47Z</time>
      </trkpt>
      <trkpt lat="49.01025" lon="1.19311">
        <ele>121.26</ele>
        <time>2012-01-11T11:13:02Z</time>
      </trkpt>
      <trkpt lat="49.0098" lon="1.193">
        <ele>121.74</ele>
        <time>2012-01-11T11:13:17Z</time>
      </trkpt>
      <trkpt lat="49.00934" lon="1.1929">
        <ele>120.78</ele>
        <time>2012-01-11T11:13:32Z</time>
      </trkpt>
      <trkpt lat="49.00896" lon="1.19283">
        <ele>121.26</ele>
        <time>2012-01-11T11:13:45Z</time>
      </trkpt>
      <trkpt lat="49.00855" lon="1.19285">
        <ele>121.74</ele>
        <time>2012-01-11T11:13:59Z</time>
      </trkpt>
      <trkpt lat="49.00821" lon="1.19292">
        <ele>120.78</ele>
        <time>2012-01-11T11:14:10Z</time>
      </trkpt>
      <trkpt lat="49.00782" lon="1.19305">
        <ele>121.26</ele>
        <time>2012-01-11T11:14:23Z</time>
      </trkpt>
      <trkpt lat="49.00767" lon="1.19341">
        <ele>121.74</ele>
        <time>2012-01-11T11:14:34Z</time>
      </trkpt>
      <trkpt lat="49.00748" lon="1.19388">
        <ele>121.74</ele>
        <time>2012-01-11T11:14:47Z</time>
      </trkpt>
      <trkpt lat="49.00735" lon="1.19425">
        <ele>122.22</ele>
        <time>2012-01-11T11:14:57Z</time>
      </trkpt>
      <trkpt lat="49.00716" lon="1.19466">
        <ele>121.74</ele>
        <time>2012-01-11T11:15:09Z</time>
      </trkpt>
      <trkpt lat="49.00709" lon="1.19524">
        <ele>123.19</ele>
        <time>2012-01-11T11:15:23Z</time>
      </trkpt>
      <trkpt lat="49.00681" lon="1.19556">
        <ele>123.67</ele>
        <time>2012-01-11T11:15:36Z</time>
      </trkpt>
      <trkpt lat="49.00645" lon="1.19564">
        <ele>121.74</ele>
        <time>2012-01-11T11:15:49Z</time>
      </trkpt>
      <trkpt lat="49.00623" lon="1.19592">
        <ele>121.74</ele>
        <time>2012-01-11T11:15:59Z</time>
      </trkpt>
      <trkpt lat="49.00598" lon="1.19635">
        <ele>121.74</ele>
        <time>2012-01-11T11:16:12Z</time>
      </trkpt>
      <trkpt lat="49.00574" lon="1.19684">
        <ele>121.74</ele>
        <time>2012-01-11T11:16:26Z</time>
      </trkpt>
      <trkpt lat="49.00555" lon="1.1973">
        <ele>121.74</ele>
        <time>2012-01-11T11:16:39Z</time>
      </trkpt>
      <trkpt lat="49.0054" lon="1.1977">
        <ele>121.74</ele>
        <time>2012-01-11T11:16:51Z</time>
      </trkpt>
      <trkpt lat="49.00523" lon="1.19815">
        <ele>122.71</ele>
        <time>2012-01-11T11:17:03Z</time>
      </trkpt>
      <trkpt lat="49.00518" lon="1.19865">
        <ele>122.71</ele>
        <time>2012-01-11T11:17:15Z</time>
      </trkpt>
      <trkpt lat="49.00525" lon="1.19921">
        <ele>123.19</ele>
        <time>2012-01-11T11:17:29Z</time>
      </trkpt>
      <trkpt lat="49.00523" lon="1.19985">
        <ele>122.71</ele>
        <time>2012-01-11T11:17:45Z</time>
      </trkpt>
      <trkpt lat="49.00525" lon="1.20034">
        <ele>123.19</ele>
        <time>2012-01-11T11:17:57Z</time>
      </trkpt>
      <trkpt lat="49.00523" lon="1.20096">
        <ele>123.67</ele>
        <time>2012-01-11T11:18:11Z</time>
      </trkpt>
      <trkpt lat="49.0052" lon="1.20161">
        <ele>123.67</ele>
        <time>2012-01-11T11:18:26Z</time>
      </trkpt>
      <trkpt lat="49.00518" lon="1.20217">
        <ele>124.15</ele>
        <time>2012-01-11T11:18:39Z</time>
      </trkpt>
      <trkpt lat="49.00514" lon="1.20264">
        <ele>124.63</ele>
        <time>2012-01-11T11:18:51Z</time>
      </trkpt>
      <trkpt lat="49.00516" lon="1.20315">
        <ele>126.55</ele>
        <time>2012-01-11T11:19:04Z</time>
      </trkpt>
      <trkpt lat="49.00518" lon="1.20352">
        <ele>125.59</ele>
        <time>2012-01-11T11:19:13Z</time>
      </trkpt>
      <trkpt lat="49.00514" lon="1.20367">
        <ele>126.07</ele>
        <time>2012-01-11T11:19:18Z</time>
      </trkpt>
      <trkpt lat="49.00471" lon="1.2041">
        <ele>123.67</ele>
        <time>2012-01-11T11:19:35Z</time>
      </trkpt>
      <trkpt lat="49.00432" lon="1.20448">
        <ele>124.15</ele>
        <time>2012-01-11T11:19:51Z</time>
      </trkpt>
      <trkpt lat="49.00402" lon="1.20474">
        <ele>123.67</ele>
        <time>2012-01-11T11:20:04Z</time>
      </trkpt>
      <trkpt lat="49.00359" lon="1.20515">
        <ele>123.67</ele>
        <time>2012-01-11T11:20:22Z</time>
      </trkpt>
      <trkpt lat="49.00325" lon="1.20545">
        <ele>122.22</ele>
        <time>2012-01-11T11:20:36Z</time>
      </trkpt>
      <trkpt lat="49.00297" lon="1.20571">
        <ele>122.22</ele>
        <time>2012-01-11T11:20:48Z</time>
      </trkpt>
      <trkpt lat="49.00263" lon="1.20611">
        <ele>122.22</ele>
        <time>2012-01-11T11:21:03Z</time>
      </trkpt>
      <trkpt lat="49.00237" lon="1.20654">
        <ele>122.22</ele>
        <time>2012-01-11T11:21:17Z</time>
      </trkpt>
      <trkpt lat="49.00211" lon="1.20704">
        <ele>121.74</ele>
        <time>2012-01-11T11:21:32Z</time>
      </trkpt>
      <trkpt lat="49.0019" lon="1.20751">
        <ele>122.22</ele>
        <time>2012-01-11T11:21:46Z</time>
      </trkpt>
      <trkpt lat="49.00177" lon="1.208">
        <ele>121.74</ele>
        <time>2012-01-11T11:21:59Z</time>
      </trkpt>
      <trkpt lat="49.00164" lon="1.20856">
        <ele>121.74</ele>
        <time>2012-01-11T11:22:15Z</time>
      </trkpt>
      <trkpt lat="49.00149" lon="1.20901">
        <ele>121.26</ele>
        <time>2012-01-11T11:22:28Z</time>
      </trkpt>
      <trkpt lat="49.00145" lon="1.20925">
        <ele>121.74</ele>
        <time>2012-01-11T11:22:35Z</time>
      </trkpt>
      <trkpt lat="49.00136" lon="1.20959">
        <ele>121.26</ele>
        <time>2012-01-11T11:22:46Z</time>
      </trkpt>
      <trkpt lat="49.00106" lon="1.21013">
        <ele>120.78</ele>
        <time>2012-01-11T11:23:00Z</time>
      </trkpt>
      <trkpt lat="49.00078" lon="1.21045">
        <ele>120.78</ele>
        <time>2012-01-11T11:23:13Z</time>
      </trkpt>
      <trkpt lat="49.00051" lon="1.21077">
        <ele>120.3</ele>
        <time>2012-01-11T11:23:26Z</time>
      </trkpt>
      <trkpt lat="49.0002" lon="1.21116">
        <ele>119.82</ele>
        <time>2012-01-11T11:23:40Z</time>
      </trkpt>
      <trkpt lat="48.99995" lon="1.2115">
        <ele>118.86</ele>
        <time>2012-01-11T11:23:52Z</time>
      </trkpt>
      <trkpt lat="48.99975" lon="1.21176">
        <ele>118.86</ele>
        <time>2012-01-11T11:24:02Z</time>
      </trkpt>
      <trkpt lat="48.9995" lon="1.21206">
        <ele>118.86</ele>
        <time>2012-01-11T11:24:14Z</time>
      </trkpt>
      <trkpt lat="48.99926" lon="1.21238">
        <ele>120.78</ele>
        <time>2012-01-11T11:24:28Z</time>
      </trkpt>
      <trkpt lat="48.99904" lon="1.21262">
        <ele>121.26</ele>
        <time>2012-01-11T11:24:39Z</time>
      </trkpt>
      <trkpt lat="48.99879" lon="1.213">
        <ele>120.78</ele>
        <time>2012-01-11T11:24:53Z</time>
      </trkpt>
      <trkpt lat="48.99855" lon="1.21341">
        <ele>121.26</ele>
        <time>2012-01-11T11:25:07Z</time>
      </trkpt>
      <trkpt lat="48.99832" lon="1.21378">
        <ele>121.26</ele>
        <time>2012-01-11T11:25:20Z</time>
      </trkpt>
      <trkpt lat="48.9981" lon="1.21403">
        <ele>120.78</ele>
        <time>2012-01-11T11:25:31Z</time>
      </trkpt>
      <trkpt lat="48.99799" lon="1.21403">
        <ele>121.26</ele>
        <time>2012-01-11T11:25:36Z</time>
      </trkpt>
      <trkpt lat="48.99782" lon="1.21354">
        <ele>120.78</ele>
        <time>2012-01-11T11:25:50Z</time>
      </trkpt>
      <trkpt lat="48.99772" lon="1.21328">
        <ele>120.3</ele>
        <time>2012-01-11T11:25:58Z</time>
      </trkpt>
      <trkpt lat="48.99772" lon="1.21324">
        <ele>120.78</ele>
        <time>2012-01-11T11:26:01Z</time>
      </trkpt>
      <trkpt lat="48.99789" lon="1.21362">
        <ele>119.82</ele>
        <time>2012-01-11T11:26:16Z</time>
      </trkpt>
      <trkpt lat="48.99804" lon="1.21405">
        <ele>121.26</ele>
        <time>2012-01-11T11:26:29Z</time>
      </trkpt>
      <trkpt lat="48.99819" lon="1.2145">
        <ele>123.19</ele>
        <time>2012-01-11T11:26:43Z</time>
      </trkpt>
      <trkpt lat="48.99834" lon="1.21493">
        <ele>123.19</ele>
        <time>2012-01-11T11:26:55Z</time>
      </trkpt>
      <trkpt lat="48.99842" lon="1.21532">
        <ele>123.67</ele>
        <time>2012-01-11T11:27:06Z</time>
      </trkpt>
      <trkpt lat="48.9986" lon="1.21577">
        <ele>124.63</ele>
        <time>2012-01-11T11:27:18Z</time>
      </trkpt>
      <trkpt lat="48.99845" lon="1.21618">
        <ele>124.63</ele>
        <time>2012-01-11T11:27:29Z</time>
      </trkpt>
      <trkpt lat="48.99804" lon="1.21646">
        <ele>124.15</ele>
        <time>2012-01-11T11:27:42Z</time>
      </trkpt>
      <trkpt lat="48.99774" lon="1.21671">
        <ele>125.11</ele>
        <time>2012-01-11T11:27:55Z</time>
      </trkpt>
      <trkpt lat="48.99744" lon="1.21695">
        <ele>125.11</ele>
        <time>2012-01-11T11:28:08Z</time>
      </trkpt>
      <trkpt lat="48.99711" lon="1.21719">
        <ele>125.59</ele>
        <time>2012-01-11T11:28:21Z</time>
      </trkpt>
      <trkpt lat="48.99677" lon="1.21742">
        <ele>124.63</ele>
        <time>2012-01-11T11:28:35Z</time>
      </trkpt>
      <trkpt lat="48.99645" lon="1.21759">
        <ele>124.15</ele>
        <time>2012-01-11T11:28:48Z</time>
      </trkpt>
      <trkpt lat="48.99604" lon="1.21759">
        <ele>122.71</ele>
        <time>2012-01-11T11:29:04Z</time>
      </trkpt>
      <trkpt lat="48.9957" lon="1.21751">
        <ele>121.74</ele>
        <time>2012-01-11T11:29:16Z</time>
      </trkpt>
      <trkpt lat="48.99531" lon="1.21759">
        <ele>121.74</ele>
        <time>2012-01-11T11:29:29Z</time>
      </trkpt>
      <trkpt lat="48.99527" lon="1.21762">
        <ele>121.74</ele>
        <time>2012-01-11T11:29:30Z</time>
      </trkpt>
      <trkpt lat="48.99499" lon="1.2177">
        <ele>121.74</ele>
        <time>2012-01-11T11:29:41Z</time>
      </trkpt>
      <trkpt lat="48.99469" lon="1.21796">
        <ele>119.82</ele>
        <time>2012-01-11T11:29:54Z</time>
      </trkpt>
      <trkpt lat="48.99443" lon="1.21817">
        <ele>119.34</ele>
        <time>2012-01-11T11:30:05Z</time>
      </trkpt>
      <trkpt lat="48.99411" lon="1.21841">
        <ele>118.38</ele>
        <time>2012-01-11T11:30:17Z</time>
      </trkpt>
      <trkpt lat="48.99379" lon="1.21862">
        <ele>118.86</ele>
        <time>2012-01-11T11:30:31Z</time>
      </trkpt>
      <trkpt lat="48.99342" lon="1.21869">
        <ele>119.34</ele>
        <time>2012-01-11T11:30:46Z</time>
      </trkpt>
      <trkpt lat="48.99315" lon="1.21841">
        <ele>121.74</ele>
        <time>2012-01-11T11:31:00Z</time>
      </trkpt>
      <trkpt lat="48.99282" lon="1.21794">
        <ele>121.74</ele>
        <time>2012-01-11T11:31:18Z</time>
      </trkpt>
      <trkpt lat="48.9928" lon="1.21789">
        <ele>121.74</ele>
        <time>2012-01-11T11:31:19Z</time>
      </trkpt>
      <trkpt lat="48.99244" lon="1.21794">
        <ele>120.3</ele>
        <time>2012-01-11T11:31:33Z</time>
      </trkpt>
      <trkpt lat="48.99207" lon="1.21813">
        <ele>121.26</ele>
        <time>2012-01-11T11:31:47Z</time>
      </trkpt>
      <trkpt lat="48.99171" lon="1.21843">
        <ele>120.3</ele>
        <time>2012-01-11T11:32:02Z</time>
      </trkpt>
      <trkpt lat="48.99158" lon="1.21852">
        <ele>121.26</ele>
        <time>2012-01-11T11:32:08Z</time>
      </trkpt>
      <trkpt lat="48.99147" lon="1.21841">
        <ele>121.26</ele>
        <time>2012-01-11T11:32:14Z</time>
      </trkpt>
      <trkpt lat="48.99145" lon="1.21774">
        <ele>122.22</ele>
        <time>2012-01-11T11:32:29Z</time>
      </trkpt>
      <trkpt lat="48.9916" lon="1.21727">
        <ele>123.19</ele>
        <time>2012-01-11T11:32:42Z</time>
      </trkpt>
      <trkpt lat="48.99162" lon="1.21721">
        <ele>123.19</ele>
        <time>2012-01-11T11:32:44Z</time>
      </trkpt>
      <trkpt lat="48.99156" lon="1.21712">
        <ele>122.22</ele>
        <time>2012-01-11T11:32:50Z</time>
      </trkpt>
      <trkpt lat="48.99121" lon="1.21727">
        <ele>122.71</ele>
        <time>2012-01-11T11:33:03Z</time>
      </trkpt>
      <trkpt lat="48.99091" lon="1.21751">
        <ele>121.74</ele>
        <time>2012-01-11T11:33:15Z</time>
      </trkpt>
      <trkpt lat="48.99057" lon="1.21774">
        <ele>119.82</ele>
        <time>2012-01-11T11:33:30Z</time>
      </trkpt>
      <trkpt lat="48.99023" lon="1.21796">
        <ele>115.98</ele>
        <time>2012-01-11T11:33:42Z</time>
      </trkpt>
      <trkpt lat="48.98995" lon="1.21824">
        <ele>115.01</ele>
        <time>2012-01-11T11:33:54Z</time>
      </trkpt>
      <trkpt lat="48.98967" lon="1.21839">
        <ele>115.5</ele>
        <time>2012-01-11T11:34:06Z</time>
      </trkpt>
      <trkpt lat="48.98945" lon="1.21858">
        <ele>117.9</ele>
        <time>2012-01-11T11:34:18Z</time>
      </trkpt>
      <trkpt lat="48.98907" lon="1.21865">
        <ele>119.82</ele>
        <time>2012-01-11T11:34:34Z</time>
      </trkpt>
      <trkpt lat="48.98875" lon="1.21862">
        <ele>120.78</ele>
        <time>2012-01-11T11:34:47Z</time>
      </trkpt>
      <trkpt lat="48.98836" lon="1.21869">
        <ele>122.71</ele>
        <time>2012-01-11T11:35:03Z</time>
      </trkpt>
      <trkpt lat="48.98791" lon="1.21865">
        <ele>123.19</ele>
        <time>2012-01-11T11:35:20Z</time>
      </trkpt>
      <trkpt lat="48.98759" lon="1.21852">
        <ele>124.15</ele>
        <time>2012-01-11T11:35:34Z</time>
      </trkpt>
      <trkpt lat="48.98729" lon="1.21837">
        <ele>123.67</ele>
        <time>2012-01-11T11:35:47Z</time>
      </trkpt>
      <trkpt lat="48.98696" lon="1.21817">
        <ele>125.11</ele>
        <time>2012-01-11T11:36:01Z</time>
      </trkpt>
      <trkpt lat="48.98664" lon="1.21802">
        <ele>126.07</ele>
        <time>2012-01-11T11:36:15Z</time>
      </trkpt>
      <trkpt lat="48.9863" lon="1.21792">
        <ele>126.07</ele>
        <time>2012-01-11T11:36:29Z</time>
      </trkpt>
      <trkpt lat="48.98596" lon="1.21779">
        <ele>127.51</ele>
        <time>2012-01-11T11:36:44Z</time>
      </trkpt>
      <trkpt lat="48.98561" lon="1.21768">
        <ele>128.47</ele>
        <time>2012-01-11T11:36:59Z</time>
      </trkpt>
      <trkpt lat="48.98525" lon="1.21764">
        <ele>127.99</ele>
        <time>2012-01-11T11:37:13Z</time>
      </trkpt>
      <trkpt lat="48.98495" lon="1.21755">
        <ele>127.99</ele>
        <time>2012-01-11T11:37:26Z</time>
      </trkpt>
      <trkpt lat="48.98458" lon="1.21749">
        <ele>127.99</ele>
        <time>2012-01-11T11:37:40Z</time>
      </trkpt>
      <trkpt lat="48.9843" lon="1.21742">
        <ele>128.47</ele>
        <time>2012-01-11T11:37:51Z</time>
      </trkpt>
      <trkpt lat="48.98411" lon="1.21702">
        <ele>127.03</ele>
        <time>2012-01-11T11:38:03Z</time>
      </trkpt>
      <trkpt lat="48.98394" lon="1.21635">
        <ele>127.51</ele>
        <time>2012-01-11T11:38:20Z</time>
      </trkpt>
      <trkpt lat="48.9839" lon="1.21579">
        <ele>126.55</ele>
        <time>2012-01-11T11:38:34Z</time>
      </trkpt>
      <trkpt lat="48.98394" lon="1.21521">
        <ele>127.51</ele>
        <time>2012-01-11T11:38:49Z</time>
      </trkpt>
      <trkpt lat="48.98396" lon="1.21463">
        <ele>127.99</ele>
        <time>2012-01-11T11:39:04Z</time>
      </trkpt>
      <trkpt lat="48.98398" lon="1.21408">
        <ele>128.47</ele>
        <time>2012-01-11T11:39:19Z</time>
      </trkpt>
      <trkpt lat="48.98394" lon="1.21352">
        <ele>127.99</ele>
        <time>2012-01-11T11:39:33Z</time>
      </trkpt>
      <trkpt lat="48.98383" lon="1.21298">
        <ele>129.43</ele>
        <time>2012-01-11T11:39:47Z</time>
      </trkpt>
      <trkpt lat="48.98364" lon="1.21242">
        <ele>128.95</ele>
        <time>2012-01-11T11:40:03Z</time>
      </trkpt>
      <trkpt lat="48.98345" lon="1.21189">
        <ele>128.95</ele>
        <time>2012-01-11T11:40:19Z</time>
      </trkpt>
      <trkpt lat="48.98323" lon="1.21137">
        <ele>130.4</ele>
        <time>2012-01-11T11:40:35Z</time>
      </trkpt>
      <trkpt lat="48.98306" lon="1.21096">
        <ele>130.4</ele>
        <time>2012-01-11T11:40:47Z</time>
      </trkpt>
      <trkpt lat="48.98287" lon="1.21047">
        <ele>130.4</ele>
        <time>2012-01-11T11:41:02Z</time>
      </trkpt>
      <trkpt lat="48.98272" lon="1.21004">
        <ele>131.36</ele>
        <time>2012-01-11T11:41:14Z</time>
      </trkpt>
      <trkpt lat="48.98263" lon="1.20985">
        <ele>131.36</ele>
        <time>2012-01-11T11:41:20Z</time>
      </trkpt>
      <trkpt lat="48.98287" lon="1.20951">
        <ele>131.36</ele>
        <time>2012-01-11T11:41:33Z</time>
      </trkpt>
      <trkpt lat="48.9831" lon="1.20916">
        <ele>132.8</ele>
        <time>2012-01-11T11:41:46Z</time>
      </trkpt>
      <trkpt lat="48.98336" lon="1.20877">
        <ele>131.84</ele>
        <time>2012-01-11T11:42:01Z</time>
      </trkpt>
      <trkpt lat="48.98357" lon="1.20845">
        <ele>133.28</ele>
        <time>2012-01-11T11:42:14Z</time>
      </trkpt>
      <trkpt lat="48.98381" lon="1.20809">
        <ele>133.28</ele>
        <time>2012-01-11T11:42:28Z</time>
      </trkpt>
      <trkpt lat="48.98407" lon="1.20772">
        <ele>133.76</ele>
        <time>2012-01-11T11:42:43Z</time>
      </trkpt>
      <trkpt lat="48.9843" lon="1.20738">
        <ele>133.76</ele>
        <time>2012-01-11T11:42:57Z</time>
      </trkpt>
      <trkpt lat="48.98454" lon="1.20704">
        <ele>133.76</ele>
        <time>2012-01-11T11:43:11Z</time>
      </trkpt>
      <trkpt lat="48.98476" lon="1.20672">
        <ele>134.24</ele>
        <time>2012-01-11T11:43:24Z</time>
      </trkpt>
      <trkpt lat="48.98501" lon="1.20635">
        <ele>133.76</ele>
        <time>2012-01-11T11:43:39Z</time>
      </trkpt>
      <trkpt lat="48.98525" lon="1.20599">
        <ele>134.24</ele>
        <time>2012-01-11T11:43:54Z</time>
      </trkpt>
      <trkpt lat="48.98555" lon="1.20554">
        <ele>133.28</ele>
        <time>2012-01-11T11:44:11Z</time>
      </trkpt>
      <trkpt lat="48.98585" lon="1.20515">
        <ele>133.76</ele>
        <time>2012-01-11T11:44:26Z</time>
      </trkpt>
      <trkpt lat="48.98606" lon="1.20481">
        <ele>131.84</ele>
        <time>2012-01-11T11:44:38Z</time>
      </trkpt>
      <trkpt lat="48.98634" lon="1.2044">
        <ele>131.36</ele>
        <time>2012-01-11T11:44:53Z</time>
      </trkpt>
      <trkpt lat="48.98658" lon="1.2041">
        <ele>130.88</ele>
        <time>2012-01-11T11:45:05Z</time>
      </trkpt>
      <trkpt lat="48.98686" lon="1.20371">
        <ele>130.4</ele>
        <time>2012-01-11T11:45:20Z</time>
      </trkpt>
      <trkpt lat="48.98716" lon="1.20326">
        <ele>129.92</ele>
        <time>2012-01-11T11:45:36Z</time>
      </trkpt>
      <trkpt lat="48.98746" lon="1.20283">
        <ele>129.43</ele>
        <time>2012-01-11T11:45:52Z</time>
      </trkpt>
      <trkpt lat="48.98774" lon="1.20242">
        <ele>129.43</ele>
        <time>2012-01-11T11:46:07Z</time>
      </trkpt>
      <trkpt lat="48.98804" lon="1.20202">
        <ele>129.43</ele>
        <time>2012-01-11T11:46:22Z</time>
      </trkpt>
      <trkpt lat="48.98827" lon="1.20165">
        <ele>128.95</ele>
        <time>2012-01-11T11:46:36Z</time>
      </trkpt>
      <trkpt lat="48.98857" lon="1.20118">
        <ele>127.03</ele>
        <time>2012-01-11T11:46:52Z</time>
      </trkpt>
      <trkpt lat="48.98883" lon="1.20073">
        <ele>126.55</ele>
        <time>2012-01-11T11:47:07Z</time>
      </trkpt>
      <trkpt lat="48.98909" lon="1.2003">
        <ele>127.51</ele>
        <time>2012-01-11T11:47:22Z</time>
      </trkpt>
      <trkpt lat="48.98935" lon="1.19991">
        <ele>127.99</ele>
        <time>2012-01-11T11:47:37Z</time>
      </trkpt>
      <trkpt lat="48.98956" lon="1.19959">
        <ele>127.51</ele>
        <time>2012-01-11T11:47:49Z</time>
      </trkpt>
      <trkpt lat="48.98984" lon="1.1991">
        <ele>127.51</ele>
        <time>2012-01-11T11:48:06Z</time>
      </trkpt>
      <trkpt lat="48.99001" lon="1.19871">
        <ele>127.51</ele>
        <time>2012-01-11T11:48:17Z</time>
      </trkpt>
      <trkpt lat="48.99023" lon="1.19841">
        <ele>125.59</ele>
        <time>2012-01-11T11:48:28Z</time>
      </trkpt>
      <trkpt lat="48.99053" lon="1.19803">
        <ele>123.67</ele>
        <time>2012-01-11T11:48:42Z</time>
      </trkpt>
      <trkpt lat="48.99074" lon="1.19781">
        <ele>122.71</ele>
        <time>2012-01-11T11:48:52Z</time>
      </trkpt>
      <trkpt lat="48.99102" lon="1.19755">
        <ele>120.78</ele>
        <time>2012-01-11T11:49:05Z</time>
      </trkpt>
      <trkpt lat="48.99132" lon="1.19723">
        <ele>121.26</ele>
        <time>2012-01-11T11:49:18Z</time>
      </trkpt>
      <trkpt lat="48.99156" lon="1.19689">
        <ele>121.26</ele>
        <time>2012-01-11T11:49:31Z</time>
      </trkpt>
      <trkpt lat="48.99181" lon="1.19648">
        <ele>121.74</ele>
        <time>2012-01-11T11:49:46Z</time>
      </trkpt>
      <trkpt lat="48.99205" lon="1.19614">
        <ele>121.74</ele>
        <time>2012-01-11T11:49:59Z</time>
      </trkpt>
      <trkpt lat="48.99231" lon="1.19582">
        <ele>124.63</ele>
        <time>2012-01-11T11:50:13Z</time>
      </trkpt>
      <trkpt lat="48.99241" lon="1.19564">
        <ele>124.63</ele>
        <time>2012-01-11T11:50:21Z</time>
      </trkpt>
      <trkpt lat="48.99241" lon="1.19564">
        <ele>124.63</ele>
        <time>2012-01-11T11:50:24Z</time>
      </trkpt>
      <trkpt lat="48.99241" lon="1.19571">
        <ele>124.15</ele>
        <time>2012-01-11T11:50:27Z</time>
      </trkpt>
      <trkpt lat="48.99246" lon="1.19575">
        <ele>125.11</ele>
        <time>2012-01-11T11:50:31Z</time>
      </trkpt>
      <trkpt lat="48.99267" lon="1.19575">
        <ele>125.59</ele>
        <time>2012-01-11T11:50:41Z</time>
      </trkpt>
      <trkpt lat="48.99269" lon="1.19582">
        <ele>125.59</ele>
        <time>2012-01-11T11:50:43Z</time>
      </trkpt>
      <trkpt lat="48.99271" lon="1.19633">
        <ele>124.63</ele>
        <time>2012-01-11T11:50:56Z</time>
      </trkpt>
      <trkpt lat="48.99269" lon="1.19648">
        <ele>124.63</ele>
        <time>2012-01-11T11:51:00Z</time>
      </trkpt>
      <trkpt lat="48.99269" lon="1.19661">
        <ele>124.63</ele>
        <time>2012-01-11T11:51:04Z</time>
      </trkpt>
      <trkpt lat="48.99271" lon="1.19678">
        <ele>125.11</ele>
        <time>2012-01-11T11:51:09Z</time>
      </trkpt>
      <trkpt lat="48.99267" lon="1.19702">
        <ele>125.59</ele>
        <time>2012-01-11T11:51:16Z</time>
      </trkpt>
      <trkpt lat="48.99267" lon="1.19712">
        <ele>125.59</ele>
        <time>2012-01-11T11:51:20Z</time>
      </trkpt>
      <trkpt lat="48.99267" lon="1.19764">
        <ele>125.11</ele>
        <time>2012-01-11T11:51:33Z</time>
      </trkpt>
      <trkpt lat="48.99265" lon="1.198">
        <ele>126.07</ele>
        <time>2012-01-11T11:51:43Z</time>
      </trkpt>
      <trkpt lat="48.99263" lon="1.19845">
        <ele>125.11</ele>
        <time>2012-01-11T11:51:55Z</time>
      </trkpt>
      <trkpt lat="48.99263" lon="1.19854">
        <ele>126.07</ele>
        <time>2012-01-11T11:51:57Z</time>
      </trkpt>
      <trkpt lat="48.99261" lon="1.19869">
        <ele>126.55</ele>
        <time>2012-01-11T11:52:01Z</time>
      </trkpt>
      <trkpt lat="48.99254" lon="1.19916">
        <ele>127.03</ele>
        <time>2012-01-11T11:52:13Z</time>
      </trkpt>
      <trkpt lat="48.99254" lon="1.19938">
        <ele>127.03</ele>
        <time>2012-01-11T11:52:19Z</time>
      </trkpt>
      <trkpt lat="48.99252" lon="1.1997">
        <ele>126.55</ele>
        <time>2012-01-11T11:52:29Z</time>
      </trkpt>
      <trkpt lat="48.99252" lon="1.19976">
        <ele>127.03</ele>
        <time>2012-01-11T11:52:31Z</time>
      </trkpt>
      <trkpt lat="48.99252" lon="1.19981">
        <ele>127.51</ele>
        <time>2012-01-11T11:52:33Z</time>
      </trkpt>
      <trkpt lat="48.99252" lon="1.19981">
        <ele>127.51</ele>
        <time>2012-01-11T11:52:36Z</time>
      </trkpt>
      <trkpt lat="48.99261" lon="1.19963">
        <ele>128.47</ele>
        <time>2012-01-11T11:52:46Z</time>
      </trkpt>
      <trkpt lat="48.99287" lon="1.19966">
        <ele>128.47</ele>
        <time>2012-01-11T11:52:58Z</time>
      </trkpt>
      <trkpt lat="48.99321" lon="1.19961">
        <ele>127.99</ele>
        <time>2012-01-11T11:53:11Z</time>
      </trkpt>
      <trkpt lat="48.99349" lon="1.19959">
        <ele>128.47</ele>
        <time>2012-01-11T11:53:22Z</time>
      </trkpt>
      <trkpt lat="48.99377" lon="1.19966">
        <ele>128.47</ele>
        <time>2012-01-11T11:53:32Z</time>
      </trkpt>
      <trkpt lat="48.994" lon="1.19966">
        <ele>127.51</ele>
        <time>2012-01-11T11:53:41Z</time>
      </trkpt>
      <trkpt lat="48.9942" lon="1.19968">
        <ele>128.47</ele>
        <time>2012-01-11T11:53:47Z</time>
      </trkpt>
      <trkpt lat="48.99432" lon="1.19985">
        <ele>128.47</ele>
        <time>2012-01-11T11:53:52Z</time>
      </trkpt>
      <trkpt lat="48.99435" lon="1.20049">
        <ele>127.99</ele>
        <time>2012-01-11T11:54:06Z</time>
      </trkpt>
      <trkpt lat="48.99439" lon="1.20114">
        <ele>127.99</ele>
        <time>2012-01-11T11:54:22Z</time>
      </trkpt>
      <trkpt lat="48.99454" lon="1.20148">
        <ele>127.51</ele>
        <time>2012-01-11T11:54:33Z</time>
      </trkpt>
      <trkpt lat="48.9949" lon="1.20129">
        <ele>127.51</ele>
        <time>2012-01-11T11:54:47Z</time>
      </trkpt>
      <trkpt lat="48.99531" lon="1.20107">
        <ele>126.55</ele>
        <time>2012-01-11T11:55:04Z</time>
      </trkpt>
      <trkpt lat="48.9957" lon="1.20088">
        <ele>126.07</ele>
        <time>2012-01-11T11:55:20Z</time>
      </trkpt>
      <trkpt lat="48.99604" lon="1.20071">
        <ele>126.07</ele>
        <time>2012-01-11T11:55:35Z</time>
      </trkpt>
      <trkpt lat="48.9963" lon="1.20058">
        <ele>126.07</ele>
        <time>2012-01-11T11:55:46Z</time>
      </trkpt>
      <trkpt lat="48.99664" lon="1.20039">
        <ele>126.07</ele>
        <time>2012-01-11T11:56:00Z</time>
      </trkpt>
      <trkpt lat="48.99703" lon="1.20021">
        <ele>126.07</ele>
        <time>2012-01-11T11:56:15Z</time>
      </trkpt>
      <trkpt lat="48.99735" lon="1.2">
        <ele>124.63</ele>
        <time>2012-01-11T11:56:29Z</time>
      </trkpt>
      <trkpt lat="48.99772" lon="1.19981">
        <ele>125.59</ele>
        <time>2012-01-11T11:56:44Z</time>
      </trkpt>
      <trkpt lat="48.99808" lon="1.19961">
        <ele>124.63</ele>
        <time>2012-01-11T11:56:59Z</time>
      </trkpt>
      <trkpt lat="48.99842" lon="1.19944">
        <ele>123.19</ele>
        <time>2012-01-11T11:57:13Z</time>
      </trkpt>
      <trkpt lat="48.99877" lon="1.19927">
        <ele>123.67</ele>
        <time>2012-01-11T11:57:27Z</time>
      </trkpt>
      <trkpt lat="48.99915" lon="1.19908">
        <ele>122.71</ele>
        <time>2012-01-11T11:57:42Z</time>
      </trkpt>
      <trkpt lat="48.99956" lon="1.19886">
        <ele>123.67</ele>
        <time>2012-01-11T11:57:59Z</time>
      </trkpt>
      <trkpt lat="48.99997" lon="1.19867">
        <ele>124.15</ele>
        <time>2012-01-11T11:58:15Z</time>
      </trkpt>
      <trkpt lat="49.00029" lon="1.19848">
        <ele>124.63</ele>
        <time>2012-01-11T11:58:29Z</time>
      </trkpt>
      <trkpt lat="49.00063" lon="1.19826">
        <ele>123.67</ele>
        <time>2012-01-11T11:58:43Z</time>
      </trkpt>
      <trkpt lat="49.00106" lon="1.19805">
        <ele>123.67</ele>
        <time>2012-01-11T11:59:00Z</time>
      </trkpt>
      <trkpt lat="49.00143" lon="1.19787">
        <ele>122.71</ele>
        <time>2012-01-11T11:59:14Z</time>
      </trkpt>
      <trkpt lat="49.00177" lon="1.1977">
        <ele>123.19</ele>
        <time>2012-01-11T11:59:28Z</time>
      </trkpt>
      <trkpt lat="49.00213" lon="1.19751">
        <ele>122.71</ele>
        <time>2012-01-11T11:59:43Z</time>
      </trkpt>
      <trkpt lat="49.0025" lon="1.19734">
        <ele>123.19</ele>
        <time>2012-01-11T11:59:58Z</time>
      </trkpt>
      <trkpt lat="49.00287" lon="1.19712">
        <ele>122.22</ele>
        <time>2012-01-11T12:00:13Z</time>
      </trkpt>
      <trkpt lat="49.00319" lon="1.19697">
        <ele>121.26</ele>
        <time>2012-01-11T12:00:26Z</time>
      </trkpt>
      <trkpt lat="49.00355" lon="1.1968">
        <ele>121.26</ele>
        <time>2012-01-11T12:00:40Z</time>
      </trkpt>
      <trkpt lat="49.00394" lon="1.19661">
        <ele>122.22</ele>
        <time>2012-01-11T12:00:56Z</time>
      </trkpt>
      <trkpt lat="49.00428" lon="1.1965">
        <ele>122.22</ele>
        <time>2012-01-11T12:01:10Z</time>
      </trkpt>
      <trkpt lat="49.00471" lon="1.19665">
        <ele>121.74</ele>
        <time>2012-01-11T12:01:26Z</time>
      </trkpt>
      <trkpt lat="49.00501" lon="1.1968">
        <ele>121.74</ele>
        <time>2012-01-11T12:01:39Z</time>
      </trkpt>
      <trkpt lat="49.00518" lon="1.19691">
        <ele>121.26</ele>
        <time>2012-01-11T12:01:46Z</time>
      </trkpt>
      <trkpt lat="49.00529" lon="1.19704">
        <ele>121.74</ele>
        <time>2012-01-11T12:01:52Z</time>
      </trkpt>
      <trkpt lat="49.00542" lon="1.19721">
        <ele>121.74</ele>
        <time>2012-01-11T12:01:59Z</time>
      </trkpt>
      <trkpt lat="49.00555" lon="1.19723">
        <ele>122.71</ele>
        <time>2012-01-11T12:02:04Z</time>
      </trkpt>
      <trkpt lat="49.00576" lon="1.19669">
        <ele>122.22</ele>
        <time>2012-01-11T12:02:20Z</time>
      </trkpt>
      <trkpt lat="49.00596" lon="1.19629">
        <ele>122.22</ele>
        <time>2012-01-11T12:02:34Z</time>
      </trkpt>
      <trkpt lat="49.00615" lon="1.19592">
        <ele>122.22</ele>
        <time>2012-01-11T12:02:47Z</time>
      </trkpt>
      <trkpt lat="49.00645" lon="1.19556">
        <ele>122.22</ele>
        <time>2012-01-11T12:03:03Z</time>
      </trkpt>
      <trkpt lat="49.00677" lon="1.19554">
        <ele>122.71</ele>
        <time>2012-01-11T12:03:17Z</time>
      </trkpt>
      <trkpt lat="49.00707" lon="1.19528">
        <ele>122.71</ele>
        <time>2012-01-11T12:03:31Z</time>
      </trkpt>
      <trkpt lat="49.00709" lon="1.19519">
        <ele>123.19</ele>
        <time>2012-01-11T12:03:33Z</time>
      </trkpt>
      <trkpt lat="49.00714" lon="1.19459">
        <ele>122.22</ele>
        <time>2012-01-11T12:03:48Z</time>
      </trkpt>
      <trkpt lat="49.00731" lon="1.19423">
        <ele>122.22</ele>
        <time>2012-01-11T12:03:59Z</time>
      </trkpt>
      <trkpt lat="49.00746" lon="1.1938">
        <ele>122.22</ele>
        <time>2012-01-11T12:04:11Z</time>
      </trkpt>
      <trkpt lat="49.00761" lon="1.1933">
        <ele>121.74</ele>
        <time>2012-01-11T12:04:24Z</time>
      </trkpt>
      <trkpt lat="49.00782" lon="1.19294">
        <ele>121.74</ele>
        <time>2012-01-11T12:04:36Z</time>
      </trkpt>
      <trkpt lat="49.00814" lon="1.19283">
        <ele>122.22</ele>
        <time>2012-01-11T12:04:49Z</time>
      </trkpt>
      <trkpt lat="49.00846" lon="1.19275">
        <ele>122.22</ele>
        <time>2012-01-11T12:05:00Z</time>
      </trkpt>
      <trkpt lat="49.00892" lon="1.19273">
        <ele>123.19</ele>
        <time>2012-01-11T12:05:16Z</time>
      </trkpt>
      <trkpt lat="49.0093" lon="1.19279">
        <ele>123.19</ele>
        <time>2012-01-11T12:05:29Z</time>
      </trkpt>
      <trkpt lat="49.00973" lon="1.1929">
        <ele>123.19</ele>
        <time>2012-01-11T12:05:44Z</time>
      </trkpt>
      <trkpt lat="49.01027" lon="1.193">
        <ele>122.22</ele>
        <time>2012-01-11T12:06:02Z</time>
      </trkpt>
      <trkpt lat="49.0107" lon="1.19298">
        <ele>122.22</ele>
        <time>2012-01-11T12:06:17Z</time>
      </trkpt>
      <trkpt lat="49.01111" lon="1.19294">
        <ele>123.19</ele>
        <time>2012-01-11T12:06:32Z</time>
      </trkpt>
      <trkpt lat="49.01151" lon="1.1929">
        <ele>124.15</ele>
        <time>2012-01-11T12:06:46Z</time>
      </trkpt>
      <trkpt lat="49.0119" lon="1.19298">
        <ele>123.67</ele>
        <time>2012-01-11T12:07:00Z</time>
      </trkpt>
      <trkpt lat="49.01229" lon="1.19309">
        <ele>123.67</ele>
        <time>2012-01-11T12:07:14Z</time>
      </trkpt>
      <trkpt lat="49.01259" lon="1.19287">
        <ele>123.19</ele>
        <time>2012-01-11T12:07:26Z</time>
      </trkpt>
      <trkpt lat="49.01286" lon="1.19255">
        <ele>123.67</ele>
        <time>2012-01-11T12:07:39Z</time>
      </trkpt>
      <trkpt lat="49.01319" lon="1.19217">
        <ele>124.63</ele>
        <time>2012-01-11T12:07:53Z</time>
      </trkpt>
      <trkpt lat="49.01344" lon="1.1918">
        <ele>125.59</ele>
        <time>2012-01-11T12:08:06Z</time>
      </trkpt>
      <trkpt lat="49.0137" lon="1.19144">
        <ele>125.59</ele>
        <time>2012-01-11T12:08:19Z</time>
      </trkpt>
      <trkpt lat="49.01398" lon="1.19109">
        <ele>125.11</ele>
        <time>2012-01-11T12:08:32Z</time>
      </trkpt>
      <trkpt lat="49.014" lon="1.19107">
        <ele>124.63</ele>
        <time>2012-01-11T12:08:33Z</time>
      </trkpt>
      <trkpt lat="49.01404" lon="1.19097">
        <ele>125.11</ele>
        <time>2012-01-11T12:08:37Z</time>
      </trkpt>
      <trkpt lat="49.01413" lon="1.19079">
        <ele>125.59</ele>
        <time>2012-01-11T12:08:43Z</time>
      </trkpt>
      <trkpt lat="49.0145" lon="1.19036">
        <ele>126.55</ele>
        <time>2012-01-11T12:08:58Z</time>
      </trkpt>
      <trkpt lat="49.01471" lon="1.18998">
        <ele>126.07</ele>
        <time>2012-01-11T12:09:10Z</time>
      </trkpt>
      <trkpt lat="49.01471" lon="1.18991">
        <ele>125.59</ele>
        <time>2012-01-11T12:09:11Z</time>
      </trkpt>
      <trkpt lat="49.01452" lon="1.1894">
        <ele>125.11</ele>
        <time>2012-01-11T12:09:24Z</time>
      </trkpt>
      <trkpt lat="49.01432" lon="1.18893">
        <ele>125.59</ele>
        <time>2012-01-11T12:09:36Z</time>
      </trkpt>
      <trkpt lat="49.01411" lon="1.18845">
        <ele>125.11</ele>
        <time>2012-01-11T12:09:48Z</time>
      </trkpt>
      <trkpt lat="49.01389" lon="1.18822">
        <ele>125.11</ele>
        <time>2012-01-11T12:09:56Z</time>
      </trkpt>
      <trkpt lat="49.01379" lon="1.18815">
        <ele>126.55</ele>
        <time>2012-01-11T12:10:00Z</time>
      </trkpt>
    </trkseg>
  </trk>
</gpx>